McBee, South Carolina
Current Conditions -  °F | °C
As of 8:55 PM on Saturday 20 Dec 2014 (Local Time) from KHVS Reporting Station
Overcast Overcast  
Wind Chill: 43°   Ceiling: 2600
Heat Index: 43°   Visibility: 7mi
Dew Point: 37°   Wind: 3mph
Humidity: 81%   Direction: 80°E
Pressure: 30.26"   Gusts: NA
Location:  34.47°N, 80.26°W
Report Text: KHVS 210155Z AUTO 08003KT 7SM BKN026 OVC060 06/03 A3026 RMK AO2
Loading
Personal Weather Stations






























Interactive Weather Map New forecast layout! Learn more

10-Day Weather Forecast

Advertisements
Track Severe Weather on mobile